createdAt,value
2018-12-05T00:02:20.116Z,14.87
2018-12-05T00:04:49.215Z,15.27
2018-12-05T00:07:18.650Z,14.20
2018-12-05T00:09:47.451Z,14.53
2018-12-05T00:12:16.259Z,12.10
2018-12-05T00:14:45.832Z,11.07
2018-12-05T00:17:14.623Z,12.17
2018-12-05T00:19:43.520Z,11.23
2018-12-05T00:22:12.372Z,11.67
2018-12-05T00:24:41.198Z,12.00
2018-12-05T00:27:10.004Z,12.30
2018-12-05T00:29:38.835Z,12.20
2018-12-05T00:32:07.646Z,11.70
2018-12-05T00:34:36.435Z,14.37
2018-12-05T00:37:06.240Z,14.37
2018-12-05T00:39:35.048Z,13.63
2018-12-05T00:42:03.924Z,15.23
2018-12-05T00:44:32.754Z,16.07
2018-12-05T00:47:01.560Z,14.70
2018-12-05T00:49:30.963Z,14.30
2018-12-05T00:52:00.831Z,15.47
2018-12-05T00:54:29.744Z,15.10
2018-12-05T00:56:58.552Z,15.63
2018-12-05T00:59:28.095Z,15.47
2018-12-05T01:01:57.167Z,14.63
2018-12-05T01:04:26.092Z,14.17
2018-12-05T01:06:54.928Z,14.63
2018-12-05T01:09:23.739Z,11.73
2018-12-05T01:11:52.579Z,11.47
2018-12-05T01:14:21.388Z,11.40
2018-12-05T01:16:50.195Z,10.40
2018-12-05T01:19:19.069Z,12.00
2018-12-05T01:21:47.888Z,14.17
2018-12-05T01:24:16.744Z,12.13
2018-12-05T01:26:45.843Z,9.37
2018-12-05T01:29:14.632Z,9.70
2018-12-05T01:31:43.963Z,10.23
2018-12-05T01:34:13.737Z,10.20
2018-12-05T01:36:42.619Z,10.20
2018-12-05T01:39:11.423Z,14.87
2018-12-05T01:41:40.636Z,12.17
2018-12-05T01:44:10.064Z,12.33
2018-12-05T01:46:38.937Z,13.43
2018-12-05T01:49:08.475Z,15.13
2018-12-05T01:51:37.309Z,16.03
2018-12-05T01:54:06.728Z,15.00
2018-12-05T01:56:36.040Z,16.00
2018-12-05T01:59:04.867Z,16.73
2018-12-05T02:01:33.752Z,14.23
2018-12-05T02:04:02.586Z,12.83
2018-12-05T02:06:31.437Z,17.27
2018-12-05T02:09:00.255Z,15.00
2018-12-05T02:11:29.176Z,15.20
2018-12-05T02:13:58.010Z,14.73
2018-12-05T02:16:26.867Z,14.70
2018-12-05T02:18:56.305Z,14.90
2018-12-05T02:21:25.730Z,13.07
2018-12-05T02:23:54.547Z,14.43
2018-12-05T02:26:23.375Z,16.10
2018-12-05T02:28:52.223Z,14.80
2018-12-05T02:31:21.356Z,15.77
2018-12-05T02:33:51.215Z,15.23
2018-12-05T02:36:20.028Z,15.57
2018-12-05T02:38:48.830Z,16.33
2018-12-05T02:41:17.631Z,15.40
2018-12-05T02:43:46.505Z,15.80
2018-12-05T02:46:15.316Z,16.03
2018-12-05T02:48:44.170Z,15.63
2018-12-05T02:51:13.061Z,16.50
2018-12-05T02:53:42.643Z,15.03
2018-12-05T02:56:12.097Z,14.63
2018-12-05T02:58:40.947Z,14.23
2018-12-05T03:01:10.396Z,12.90
2018-12-05T03:03:39.249Z,14.27
2018-12-05T03:06:08.072Z,15.80
2018-12-05T03:08:36.879Z,17.10
2018-12-05T03:11:05.706Z,17.30
2018-12-05T03:13:34.517Z,18.77
2018-12-05T03:16:03.333Z,17.57
2018-12-05T03:18:32.936Z,19.10
2018-12-05T03:21:01.762Z,17.07
2018-12-05T03:23:31.140Z,17.80
2018-12-05T03:26:00.092Z,18.03
2018-12-05T03:28:28.832Z,20.70
2018-12-05T03:30:57.656Z,18.33
2018-12-05T03:33:27.172Z,20.23
2018-12-05T03:35:55.990Z,19.40
2018-12-05T03:38:24.799Z,19.73
2018-12-05T03:40:53.666Z,15.63
2018-12-05T03:43:22.467Z,19.10
2018-12-05T03:45:51.342Z,20.10
2018-12-05T03:48:20.151Z,20.13
2018-12-05T03:50:49.021Z,18.83
2018-12-05T03:53:17.847Z,22.37
2018-12-05T03:55:46.669Z,22.47
2018-12-05T03:58:15.493Z,21.87
2018-12-05T04:00:44.279Z,22.47
2018-12-05T04:03:13.425Z,24.13
2018-12-05T04:05:43.561Z,23.23
2018-12-05T04:08:12.432Z,19.13
2018-12-05T04:10:41.230Z,23.10
2018-12-05T04:13:10.662Z,24.00
2018-12-05T04:15:41.074Z,23.53
2018-12-05T04:18:09.895Z,22.73
2018-12-05T04:20:38.756Z,23.60
2018-12-05T04:23:07.646Z,22.67
2018-12-05T04:25:36.738Z,20.67
2018-12-05T04:28:05.612Z,21.93
2018-12-05T04:30:34.403Z,22.07
2018-12-05T04:33:03.938Z,23.10
2018-12-05T04:35:32.764Z,22.87
2018-12-05T04:38:01.597Z,21.43
2018-12-05T04:40:30.696Z,22.33
2018-12-05T04:42:59.587Z,23.17
2018-12-05T04:45:28.506Z,23.87
2018-12-05T04:47:57.349Z,23.03
2018-12-05T04:50:26.180Z,23.20
2018-12-05T04:52:54.996Z,23.87
2018-12-05T04:55:23.789Z,23.23
2018-12-05T04:57:52.657Z,24.83
2018-12-05T05:00:22.569Z,23.37
2018-12-05T05:02:52.476Z,23.90
2018-12-05T05:05:21.268Z,22.90
2018-12-05T05:07:50.085Z,24.10
2018-12-05T05:10:18.968Z,21.80
2018-12-05T05:12:47.819Z,19.57
2018-12-05T05:15:16.625Z,19.67
2018-12-05T05:17:45.415Z,18.50
2018-12-05T05:20:14.251Z,17.27
2018-12-05T05:22:43.183Z,17.90
2018-12-05T05:25:12.019Z,17.27
2018-12-05T05:27:45.910Z,18.93
2018-12-05T05:30:10.191Z,17.60
2018-12-05T05:32:38.994Z,20.27
2018-12-05T05:35:08.130Z,18.40
2018-12-05T05:37:36.942Z,17.87
2018-12-05T05:40:05.827Z,16.63
2018-12-05T05:42:34.705Z,14.93
2018-12-05T05:45:03.612Z,16.60
2018-12-05T05:47:32.475Z,15.20
2018-12-05T05:50:01.301Z,17.57
2018-12-05T05:52:30.168Z,17.67
2018-12-05T05:54:58.994Z,17.43
2018-12-05T05:57:28.101Z,17.63
2018-12-05T05:59:56.909Z,16.50
2018-12-05T06:02:26.384Z,15.83
2018-12-05T06:04:55.203Z,16.90
2018-12-05T06:07:24.033Z,15.07
2018-12-05T06:09:52.925Z,17.03
2018-12-05T06:12:21.748Z,15.63
2018-12-05T06:14:50.580Z,16.23
2018-12-05T06:17:19.411Z,14.27
2018-12-05T06:19:48.210Z,15.83
2018-12-05T06:22:17.050Z,13.77
2018-12-05T06:24:45.927Z,19.52
2018-12-05T06:27:14.725Z,17.20
2018-12-05T06:29:44.467Z,14.40
2018-12-05T06:32:13.304Z,14.93
2018-12-05T06:34:42.173Z,13.30
2018-12-05T06:37:11.159Z,14.30
2018-12-05T06:39:39.961Z,13.73
2018-12-05T06:42:09.087Z,17.27
2018-12-05T06:44:37.992Z,15.70
2018-12-05T06:47:06.864Z,13.67
2018-12-05T06:49:35.817Z,13.47
2018-12-05T06:52:04.655Z,14.30
2018-12-05T06:54:33.567Z,13.43
2018-12-05T06:57:02.413Z,14.80
2018-12-05T06:59:31.230Z,13.80
2018-12-05T07:02:00.926Z,12.87
2018-12-05T07:04:29.934Z,13.53
2018-12-05T07:06:59.745Z,14.23
2018-12-05T07:09:28.617Z,14.33
2018-12-05T07:11:57.414Z,13.13
2018-12-05T07:14:26.320Z,14.33
2018-12-05T07:16:55.116Z,12.70
2018-12-05T07:19:24.402Z,14.10
2018-12-05T07:21:53.292Z,13.70
2018-12-05T07:24:22.157Z,12.63
2018-12-05T07:26:50.971Z,14.37
2018-12-05T07:29:19.775Z,13.23
2018-12-05T07:31:48.614Z,14.10
2018-12-05T07:34:17.467Z,14.17
2018-12-05T07:36:46.291Z,14.37
2018-12-05T07:39:15.113Z,12.00
2018-12-05T07:41:43.987Z,14.67
2018-12-05T07:44:13.324Z,13.90
2018-12-05T07:46:42.151Z,13.00
2018-12-05T07:49:10.967Z,14.23
2018-12-05T07:51:39.958Z,14.23
2018-12-05T07:54:09.051Z,12.77
2018-12-05T07:56:37.842Z,12.40
2018-12-05T07:59:06.648Z,13.27
2018-12-05T08:01:35.463Z,14.60
2018-12-05T08:04:04.302Z,15.00
2018-12-05T08:06:33.789Z,12.47
2018-12-05T08:09:02.652Z,14.10
2018-12-05T08:11:31.526Z,14.77
2018-12-05T08:14:00.399Z,13.70
2018-12-05T08:16:29.250Z,13.37
2018-12-05T08:18:58.055Z,14.23
2018-12-05T08:21:27.072Z,12.43
2018-12-05T08:23:55.875Z,13.13
2018-12-05T08:26:25.733Z,13.03
2018-12-05T08:28:54.844Z,13.17
2018-12-05T08:31:23.992Z,13.27
2018-12-05T08:33:52.829Z,13.20
2018-12-05T08:36:21.685Z,13.80
2018-12-05T08:38:51.838Z,12.73
2018-12-05T08:41:20.949Z,12.67
2018-12-05T08:43:49.793Z,13.37
2018-12-05T08:46:19.660Z,13.17
2018-12-05T08:48:48.593Z,12.47
2018-12-05T08:51:17.414Z,12.97
2018-12-05T08:53:46.271Z,12.73
2018-12-05T08:56:15.072Z,13.73
2018-12-05T08:58:44.108Z,12.93
2018-12-05T09:01:13.554Z,12.87
2018-12-05T09:03:42.397Z,13.97
2018-12-05T09:06:11.201Z,14.47
2018-12-05T09:08:41.388Z,13.33
2018-12-05T09:11:11.028Z,13.23
2018-12-05T09:13:39.920Z,14.00
2018-12-05T09:16:08.711Z,13.23
2018-12-05T09:18:37.838Z,13.53
2018-12-05T09:21:06.785Z,12.90
2018-12-05T09:23:35.647Z,12.27
2018-12-05T09:26:04.536Z,13.83
2018-12-05T09:28:34.025Z,13.53
2018-12-05T09:31:02.839Z,13.83
2018-12-05T09:33:31.629Z,13.93
2018-12-05T09:36:00.416Z,15.13
2018-12-05T09:38:30.468Z,14.13
2018-12-05T09:41:00.640Z,12.90
2018-12-05T09:43:29.403Z,14.77
2018-12-05T09:45:58.239Z,13.23
2018-12-05T09:48:27.312Z,14.63
2018-12-05T09:50:56.120Z,15.43
2018-12-05T09:53:24.899Z,13.23
2018-12-05T09:55:53.766Z,15.07
2018-12-05T09:58:22.649Z,14.93
2018-12-05T10:00:51.521Z,15.53
2018-12-05T10:03:20.400Z,15.47
2018-12-05T10:05:49.208Z,15.00
2018-12-05T10:08:18.014Z,14.27
2018-12-05T10:10:46.804Z,17.40
2018-12-05T10:13:15.592Z,15.83
2018-12-05T10:15:44.445Z,15.17
2018-12-05T10:18:13.309Z,16.07
2018-12-05T10:20:42.618Z,16.10
2018-12-05T10:23:12.272Z,16.13
2018-12-05T10:25:42.081Z,15.87
2018-12-05T10:28:11.314Z,16.33
2018-12-05T10:30:40.201Z,16.33
2018-12-05T10:33:09.056Z,16.30
2018-12-05T10:35:37.927Z,16.10
2018-12-05T10:38:06.827Z,15.83
2018-12-05T10:40:36.526Z,14.40
2018-12-05T10:43:05.428Z,14.07
2018-12-05T10:45:34.319Z,16.07
2018-12-05T10:48:03.431Z,15.87
2018-12-05T10:50:33.284Z,16.33
2018-12-05T10:53:02.120Z,15.73
2018-12-05T10:55:31.568Z,15.83
2018-12-05T10:58:00.408Z,15.17
2018-12-05T11:00:35.211Z,16.43
2018-12-05T11:03:09.411Z,14.93
2018-12-05T11:05:43.739Z,21.13
2018-12-05T11:08:17.965Z,19.20
2018-12-05T11:10:52.250Z,18.67
2018-12-05T11:13:26.492Z,18.13
2018-12-05T11:16:12.728Z,16.83
2018-12-05T11:18:46.958Z,17.30
2018-12-05T11:21:21.739Z,16.77
2018-12-05T11:24:56.600Z,16.60
2018-12-05T11:27:25.797Z,16.03
2018-12-05T11:29:56.800Z,17.40
2018-12-05T11:32:25.606Z,17.07
2018-12-05T11:34:54.492Z,16.70
2018-12-05T11:37:23.327Z,15.93
2018-12-05T11:39:54.531Z,17.50
2018-12-05T11:42:23.287Z,17.17
2018-12-05T11:44:52.312Z,16.63
2018-12-05T11:47:23.047Z,16.43
2018-12-05T11:49:53.120Z,16.97
2018-12-05T11:52:22.186Z,16.80
2018-12-05T11:54:51.024Z,16.27
2018-12-05T11:57:19.863Z,16.63
2018-12-05T11:59:49.540Z,16.13
2018-12-05T12:02:22.262Z,15.90
2018-12-05T12:04:47.823Z,16.63
2018-12-05T12:07:16.672Z,17.77
2018-12-05T12:09:45.472Z,16.70
2018-12-05T12:12:19.753Z,17.70
2018-12-05T12:14:48.662Z,17.83
2018-12-05T12:17:29.184Z,16.30
2018-12-05T12:20:01.458Z,16.47
2018-12-05T12:22:30.891Z,17.47
2018-12-05T12:25:04.600Z,18.17
2018-12-05T12:27:33.399Z,17.37
2018-12-05T12:30:02.753Z,18.13
2018-12-05T12:32:33.126Z,17.47
2018-12-05T12:35:01.955Z,16.73
2018-12-05T12:37:31.643Z,17.63
2018-12-05T12:40:00.464Z,17.00
2018-12-05T12:42:29.288Z,16.03
2018-12-05T12:44:58.092Z,17.60
2018-12-05T12:47:26.930Z,16.40
2018-12-05T12:49:55.817Z,17.97
2018-12-05T12:52:24.680Z,18.17
2018-12-05T12:54:53.573Z,18.07
2018-12-05T12:57:23.143Z,18.10
2018-12-05T12:59:51.955Z,19.03
2018-12-05T13:02:20.760Z,17.20
2018-12-05T13:04:50.630Z,18.13
2018-12-05T13:07:19.479Z,17.97
2018-12-05T13:09:48.262Z,18.63
2018-12-05T13:12:23.484Z,19.03
2018-12-05T13:14:52.591Z,19.73
2018-12-05T13:17:21.376Z,20.13
2018-12-05T13:19:50.266Z,17.77
2018-12-05T13:22:19.079Z,18.97
2018-12-05T13:24:47.914Z,18.30
2018-12-05T13:27:16.754Z,20.33
2018-12-05T13:29:45.579Z,19.60
2018-12-05T13:32:14.383Z,18.77
2018-12-05T13:34:43.273Z,18.97
2018-12-05T13:37:12.097Z,19.27
2018-12-05T13:39:40.977Z,18.57
2018-12-05T13:42:10.160Z,19.17
2018-12-05T13:44:39.039Z,19.73
2018-12-05T13:47:08.664Z,19.10
2018-12-05T13:49:38.371Z,17.47
2018-12-05T13:52:07.941Z,17.57
2018-12-05T13:54:37.783Z,18.90
2018-12-05T13:57:07.342Z,18.13
2018-12-05T13:59:36.714Z,16.57
2018-12-05T14:02:05.748Z,17.80
2018-12-05T14:04:34.597Z,18.63
2018-12-05T14:07:03.804Z,17.23
2018-12-05T14:09:32.595Z,17.00
2018-12-05T14:12:01.480Z,18.40
2018-12-05T14:14:30.283Z,18.67
2018-12-05T14:17:00.275Z,18.27
2018-12-05T14:19:29.162Z,17.83
2018-12-05T14:21:58.247Z,17.90
2018-12-05T14:24:27.093Z,18.73
2018-12-05T14:26:56.118Z,19.33
2018-12-05T14:29:26.685Z,19.20
2018-12-05T14:31:56.443Z,19.70
2018-12-05T14:34:27.181Z,20.97
2018-12-05T14:36:56.020Z,23.13
2018-12-05T14:39:24.855Z,23.43
2018-12-05T14:41:53.673Z,23.23
2018-12-05T14:44:25.605Z,22.03
2018-12-05T14:46:54.495Z,20.23
2018-12-05T14:49:23.338Z,19.13
2018-12-05T14:51:52.769Z,19.77
2018-12-05T14:54:22.138Z,19.03
2018-12-05T14:56:50.929Z,21.70
2018-12-05T14:59:22.516Z,20.60
2018-12-05T15:01:52.159Z,20.00
2018-12-05T15:04:20.968Z,19.70
2018-12-05T15:06:49.800Z,18.00
2018-12-05T15:09:19.396Z,18.67
2018-12-05T15:11:48.851Z,18.27
2018-12-05T15:14:18.051Z,20.57
2018-12-05T15:16:47.792Z,20.83
2018-12-05T15:19:17.292Z,20.27
2018-12-05T15:21:46.911Z,20.57
2018-12-05T15:24:22.069Z,20.63
2018-12-05T15:26:59.082Z,22.37
2018-12-05T15:29:27.926Z,20.33
2018-12-05T15:31:56.742Z,20.70
2018-12-05T15:34:25.724Z,20.93
2018-12-05T15:36:54.580Z,19.23
2018-12-05T15:39:24.362Z,19.37
2018-12-05T15:41:53.420Z,21.07
2018-12-05T15:44:23.999Z,19.40
2018-12-05T15:46:54.454Z,20.87
2018-12-05T15:49:31.882Z,22.10
2018-12-05T15:52:03.586Z,21.67
2018-12-05T15:54:33.451Z,21.30
2018-12-05T15:57:09.661Z,21.80
2018-12-05T15:59:33.471Z,21.30
2018-12-05T16:02:11.384Z,21.23
2018-12-05T16:04:41.703Z,22.07
2018-12-05T16:07:10.603Z,22.97
2018-12-05T16:09:39.536Z,22.57
2018-12-05T16:12:08.330Z,22.03
2018-12-05T16:14:38.446Z,23.17
2018-12-05T16:17:07.876Z,21.80
2018-12-05T16:19:36.740Z,22.37
2018-12-05T16:22:05.615Z,24.00
2018-12-05T16:24:34.452Z,22.53
2018-12-05T16:27:03.296Z,21.30
2018-12-05T16:29:33.123Z,24.53
2018-12-05T16:32:03.504Z,22.90
2018-12-05T16:34:32.329Z,22.37
2018-12-05T16:37:01.192Z,23.00
2018-12-05T16:39:30.096Z,22.63
2018-12-05T16:42:00.551Z,23.27
2018-12-05T16:44:31.693Z,23.30
2018-12-05T16:47:00.592Z,23.17
2018-12-05T16:49:29.487Z,22.07
2018-12-05T16:51:58.287Z,23.73
2018-12-05T16:54:27.105Z,23.33
2018-12-05T16:56:55.938Z,23.70
2018-12-05T16:59:24.740Z,21.83
2018-12-05T17:01:53.531Z,22.63
2018-12-05T17:04:22.389Z,22.30
2018-12-05T17:06:51.239Z,23.67
2018-12-05T17:09:25.973Z,31.03
2018-12-05T17:11:49.181Z,23.20
2018-12-05T17:14:18.180Z,21.23
2018-12-05T17:16:47.479Z,20.57
2018-12-05T17:19:16.300Z,21.47
2018-12-05T17:21:47.197Z,20.10
2018-12-05T17:24:15.996Z,21.23
2018-12-05T17:26:44.905Z,19.47
2018-12-05T17:29:13.741Z,22.00
2018-12-05T17:31:42.645Z,20.50
2018-12-05T17:34:11.471Z,20.77
2018-12-05T17:36:40.311Z,19.83
2018-12-05T17:39:10.257Z,19.13
2018-12-05T17:41:39.065Z,19.60
2018-12-05T17:44:08.803Z,19.13
2018-12-05T17:46:39.231Z,19.07
2018-12-05T17:49:08.092Z,19.37
2018-12-05T17:51:36.946Z,19.87
2018-12-05T17:54:05.772Z,19.30
2018-12-05T17:56:35.146Z,19.03
2018-12-05T17:59:03.485Z,19.23
2018-12-05T18:01:32.328Z,19.17
2018-12-05T18:04:01.155Z,20.03
2018-12-05T18:06:29.946Z,19.83
2018-12-05T18:08:58.759Z,18.47
2018-12-05T18:11:27.599Z,19.20
2018-12-05T18:13:56.742Z,19.03
2018-12-05T18:16:25.655Z,18.57
2018-12-05T18:18:55.139Z,18.70
2018-12-05T18:21:23.936Z,19.40
2018-12-05T18:23:53.395Z,20.67
2018-12-05T18:26:22.164Z,20.40
2018-12-05T18:28:50.973Z,20.00
2018-12-05T18:31:19.881Z,21.20
2018-12-05T18:33:48.798Z,18.93
2018-12-05T18:36:17.699Z,20.87
2018-12-05T18:38:46.515Z,19.57
2018-12-05T18:41:15.326Z,20.27
2018-12-05T18:43:44.234Z,20.63
2018-12-05T18:46:13.061Z,19.30
2018-12-05T18:48:42.101Z,18.60
2018-12-05T18:51:10.926Z,20.23
2018-12-05T18:53:39.836Z,21.10
2018-12-05T18:56:08.744Z,19.87
2018-12-05T18:58:37.572Z,19.40
2018-12-05T19:01:06.467Z,20.63
2018-12-05T19:03:35.355Z,21.20
2018-12-05T19:06:04.191Z,20.37
2018-12-05T19:08:34.394Z,20.60
2018-12-05T19:11:01.800Z,21.07
2018-12-05T19:13:30.631Z,19.90
2018-12-05T19:15:59.468Z,21.63
2018-12-05T19:18:28.302Z,24.50
2018-12-05T19:20:58.765Z,21.77
2018-12-05T19:23:27.644Z,21.03
2018-12-05T19:25:56.466Z,19.27
2018-12-05T19:28:25.263Z,19.13
2018-12-05T19:30:54.100Z,19.60
2018-12-05T19:33:23.180Z,17.87
2018-12-05T19:35:52.058Z,18.70
2018-12-05T19:38:20.919Z,19.77
2018-12-05T19:40:49.783Z,22.40
2018-12-05T19:43:18.754Z,27.43
2018-12-05T19:45:47.600Z,23.33
2018-12-05T19:48:20.191Z,19.30
2018-12-05T19:50:51.219Z,20.80
2018-12-05T19:53:20.079Z,19.63
2018-12-05T19:55:48.939Z,18.67
2018-12-05T19:58:17.759Z,17.93
2018-12-05T20:00:46.548Z,18.10
2018-12-05T20:03:15.359Z,18.13
2018-12-05T20:05:44.517Z,18.23
2018-12-05T20:08:13.344Z,17.70
2018-12-05T20:10:42.203Z,18.00
2018-12-05T20:13:11.411Z,17.50
2018-12-05T20:15:40.223Z,17.20
2018-12-05T20:18:09.321Z,17.83
2018-12-05T20:20:38.215Z,17.13
2018-12-05T20:23:08.634Z,16.37
2018-12-05T20:25:37.418Z,16.27
2018-12-05T20:28:06.372Z,17.53
2018-12-05T20:30:35.248Z,16.00
2018-12-05T20:33:04.936Z,17.20
2018-12-05T20:35:35.140Z,16.73
2018-12-05T20:38:04.897Z,16.13
2018-12-05T20:40:35.371Z,16.33
2018-12-05T20:43:04.189Z,16.47
2018-12-05T20:45:33.038Z,17.33
2018-12-05T20:48:02.541Z,15.97
2018-12-05T20:50:31.887Z,18.70
2018-12-05T20:53:01.346Z,18.30
2018-12-05T20:55:30.233Z,17.27
2018-12-05T20:57:59.975Z,17.30
2018-12-05T21:00:28.803Z,16.30
2018-12-05T21:02:57.659Z,16.20
2018-12-05T21:05:27.272Z,15.90
2018-12-05T21:07:56.103Z,15.90
2018-12-05T21:10:24.916Z,14.67
2018-12-05T21:12:53.742Z,15.13
2018-12-05T21:15:24.639Z,16.27
2018-12-05T21:17:53.470Z,15.73
2018-12-05T21:20:26.461Z,16.77
2018-12-05T21:22:55.312Z,16.03
2018-12-05T21:25:24.337Z,16.47
2018-12-05T21:27:53.216Z,15.10
2018-12-05T21:30:22.091Z,15.77
2018-12-05T21:32:50.942Z,16.70
2018-12-05T21:35:19.770Z,16.27
2018-12-05T21:37:48.593Z,16.37
2018-12-05T21:40:18.600Z,17.17
2018-12-05T21:42:47.488Z,16.97
2018-12-05T21:45:16.347Z,17.50
2018-12-05T21:47:45.207Z,16.97
2018-12-05T21:50:14.048Z,18.10
2018-12-05T21:52:42.956Z,16.87
2018-12-05T21:55:11.910Z,17.77
2018-12-05T21:57:40.743Z,15.60
2018-12-05T22:00:11.788Z,15.40
2018-12-05T22:02:40.631Z,17.63
2018-12-05T22:05:09.499Z,16.60
2018-12-05T22:07:38.370Z,15.87
2018-12-05T22:10:08.808Z,15.83
2018-12-05T22:12:37.589Z,16.03
2018-12-05T22:15:06.662Z,15.57
2018-12-05T22:17:35.552Z,15.23
2018-12-05T22:20:05.231Z,15.90
2018-12-05T22:22:34.072Z,15.13
2018-12-05T22:25:02.947Z,15.70
2018-12-05T22:27:31.834Z,16.53
2018-12-05T22:30:00.672Z,16.03
2018-12-05T22:32:29.469Z,16.50
2018-12-05T22:34:58.275Z,16.17
2018-12-05T22:37:27.154Z,16.77
2018-12-05T22:39:55.974Z,16.40
2018-12-05T22:42:26.016Z,14.27
2018-12-05T22:44:54.884Z,15.93
2018-12-05T22:47:23.690Z,17.20
2018-12-05T22:49:52.507Z,15.00
2018-12-05T22:52:21.912Z,16.50
2018-12-05T22:54:50.751Z,15.83
2018-12-05T22:57:19.640Z,17.50
2018-12-05T22:59:48.450Z,15.87
2018-12-05T23:02:17.283Z,15.70
2018-12-05T23:04:46.157Z,17.67
2018-12-05T23:07:15.606Z,15.77
2018-12-05T23:09:44.527Z,16.17
2018-12-05T23:12:14.138Z,17.67
2018-12-05T23:14:44.228Z,15.13
2018-12-05T23:17:14.811Z,15.83
2018-12-05T23:19:44.321Z,15.70
2018-12-05T23:22:13.113Z,16.60
2018-12-05T23:24:41.999Z,15.40
2018-12-05T23:27:11.181Z,16.53
2018-12-05T23:29:39.991Z,15.80
2018-12-05T23:32:08.852Z,15.40
2018-12-05T23:34:37.668Z,18.53
2018-12-05T23:37:06.555Z,14.73
2018-12-05T23:39:35.387Z,18.37
2018-12-05T23:42:04.513Z,18.00
2018-12-05T23:44:33.328Z,13.43
2018-12-05T23:47:02.956Z,15.70
2018-12-05T23:49:31.766Z,14.87
2018-12-05T23:52:00.584Z,15.13
2018-12-05T23:54:29.447Z,15.03
2018-12-05T23:56:58.246Z,15.33
2018-12-05T23:59:27.063Z,15.57
